SWR3MD LSGG-LSZH
Flight info
| Callsign | SWR3MD |
|---|---|
| Flight time | 0h 39m |
| Altitude | 17000 |
| Route | SOSAL N871 BERSU |
| Aircraft | MD11/H-SDE1E2E3FGHIJ2J3J4J5M1RWXY/LB1D1 |
Departure
| Time | 2026-02-20 22:31 |
|---|---|
| Airport | Geneva International Airport (LSGG) |
Arrival
| Time | 2026-02-20 23:11 |
|---|---|
| Airport | Zürich Airport (LSZH) |
| Time | Latitude | Longitude | Altitude | Speed | Heading |
|---|---|---|---|---|---|
| 2026-02-20 22:02 | 46.23431 | 6.10795 | 1392 ft | 0 kts | 134° |
| 2026-02-20 22:23 | 46.23397 | 6.10896 | 1392 ft | 13 kts | 73° |
| 2026-02-20 22:23 | 46.23480 | 6.11030 | 1390 ft | 24 kts | 45° |
| 2026-02-20 22:23 | 46.23613 | 6.11145 | 1387 ft | 17 kts | 327° |
| 2026-02-20 22:24 | 46.23696 | 6.11088 | 1387 ft | 13 kts | 16° |
| 2026-02-20 22:24 | 46.23829 | 6.11262 | 1385 ft | 38 kts | 45° |
| 2026-02-20 22:24 | 46.23943 | 6.11430 | 1382 ft | 20 kts | 46° |
| 2026-02-20 22:24 | 46.24064 | 6.11610 | 1379 ft | 28 kts | 45° |
| 2026-02-20 22:25 | 46.24221 | 6.11839 | 1375 ft | 35 kts | 45° |
| 2026-02-20 22:25 | 46.24403 | 6.12106 | 1374 ft | 39 kts | 46° |
| 2026-02-20 22:25 | 46.24602 | 6.12392 | 1373 ft | 36 kts | 46° |
| 2026-02-20 22:25 | 46.24690 | 6.12525 | 1372 ft | 7 kts | 47° |
| 2026-02-20 22:26 | 46.24708 | 6.12554 | 1372 ft | 1 kts | 47° |
| 2026-02-20 22:26 | 46.24727 | 6.12582 | 1372 ft | 9 kts | 45° |
| 2026-02-20 22:26 | 46.24829 | 6.12678 | 1371 ft | 0 kts | 19° |
| 2026-02-20 22:27 | 46.24839 | 6.12683 | 1371 ft | 4 kts | 19° |
| 2026-02-20 22:27 | 46.24916 | 6.12719 | 1371 ft | 16 kts | 13° |
| 2026-02-20 22:27 | 46.25015 | 6.12685 | 1370 ft | 0 kts | 316° |
| 2026-02-20 22:27 | 46.25020 | 6.12666 | 1370 ft | 4 kts | 263° |
| 2026-02-20 22:28 | 46.24986 | 6.12624 | 1371 ft | 9 kts | 224° |
| 2026-02-20 22:28 | 46.24952 | 6.12574 | 1371 ft | 1 kts | 225° |
| 2026-02-20 22:28 | 46.24943 | 6.12560 | 1371 ft | 3 kts | 225° |
| 2026-02-20 22:28 | 46.24942 | 6.12559 | 1371 ft | 0 kts | 225° |
| 2026-02-20 22:29 | 46.24942 | 6.12558 | 1371 ft | 0 kts | 225° |
| 2026-02-20 22:29 | 46.24940 | 6.12556 | 1371 ft | 1 kts | 225° |
| 2026-02-20 22:29 | 46.24933 | 6.12545 | 1371 ft | 0 kts | 225° |
| 2026-02-20 22:30 | 46.24932 | 6.12545 | 1371 ft | 0 kts | 225° |
| 2026-02-20 22:31 | 46.24916 | 6.12522 | 1372 ft | 14 kts | 225° |
| 2026-02-20 22:31 | 46.24607 | 6.12069 | 1373 ft | 113 kts | 225° |
| 2026-02-20 22:31 | 46.23867 | 6.10970 | 1454 ft | 184 kts | 225° |
| 2026-02-20 22:31 | 46.22995 | 6.09692 | 2554 ft | 178 kts | 224° |
| 2026-02-20 22:32 | 46.22125 | 6.08431 | 3505 ft | 178 kts | 225° |
| 2026-02-20 22:32 | 46.21262 | 6.07190 | 4291 ft | 177 kts | 226° |
| 2026-02-20 22:32 | 46.20361 | 6.05887 | 4860 ft | 191 kts | 226° |
| 2026-02-20 22:32 | 46.19408 | 6.04506 | 5453 ft | 202 kts | 228° |
| 2026-02-20 22:33 | 46.18687 | 6.02759 | 6074 ft | 204 kts | 263° |
| 2026-02-20 22:33 | 46.18813 | 6.00788 | 6793 ft | 201 kts | 298° |
| 2026-02-20 22:33 | 46.19709 | 5.99341 | 7507 ft | 199 kts | 333° |
| 2026-02-20 22:33 | 46.21025 | 5.98966 | 8274 ft | 201 kts | 7° |
| 2026-02-20 22:34 | 46.22273 | 5.99825 | 9080 ft | 208 kts | 39° |
| 2026-02-20 22:34 | 46.23155 | 6.01501 | 9819 ft | 221 kts | 61° |
| 2026-02-20 22:34 | 46.23530 | 6.03664 | 10657 ft | 227 kts | 79° |
| 2026-02-20 22:34 | 46.23931 | 6.05823 | 11372 ft | 220 kts | 51° |
| 2026-02-20 22:35 | 46.25001 | 6.07257 | 12120 ft | 208 kts | 18° |
| 2026-02-20 22:35 | 46.26350 | 6.07643 | 12899 ft | 204 kts | 358° |
| 2026-02-20 22:35 | 46.27831 | 6.07960 | 13430 ft | 229 kts | 9° |
| 2026-02-20 22:35 | 46.29408 | 6.08847 | 13890 ft | 260 kts | 23° |
| 2026-02-20 22:36 | 46.30937 | 6.10323 | 14376 ft | 293 kts | 33° |
| 2026-02-20 22:36 | 46.32507 | 6.12388 | 14880 ft | 326 kts | 39° |
| 2026-02-20 22:36 | 46.34116 | 6.14902 | 15429 ft | 354 kts | 43° |
| 2026-02-20 22:36 | 46.35756 | 6.17585 | 16422 ft | 360 kts | 40° |
| 2026-02-20 22:37 | 46.37519 | 6.20152 | 16855 ft | 360 kts | 37° |
| 2026-02-20 22:37 | 46.39350 | 6.22585 | 16897 ft | 358 kts | 35° |
| 2026-02-20 22:37 | 46.41217 | 6.24978 | 16904 ft | 356 kts | 35° |
| 2026-02-20 22:37 | 46.43068 | 6.27379 | 16928 ft | 357 kts | 36° |
| 2026-02-20 22:38 | 46.44879 | 6.29795 | 16968 ft | 358 kts | 36° |
| 2026-02-20 22:38 | 46.46707 | 6.32256 | 17212 ft | 358 kts | 36° |
| 2026-02-20 22:38 | 46.48536 | 6.34715 | 17236 ft | 359 kts | 36° |
| 2026-02-20 22:38 | 46.50360 | 6.37157 | 17278 ft | 358 kts | 36° |
| 2026-02-20 22:39 | 46.52201 | 6.39603 | 17298 ft | 358 kts | 36° |
| 2026-02-20 22:39 | 46.54022 | 6.42043 | 17310 ft | 360 kts | 39° |
| 2026-02-20 22:39 | 46.55557 | 6.44935 | 17319 ft | 372 kts | 54° |
| 2026-02-20 22:39 | 46.56474 | 6.48496 | 17342 ft | 384 kts | 74° |
| 2026-02-20 22:40 | 46.56627 | 6.52421 | 17351 ft | 390 kts | 87° |
| 2026-02-20 22:40 | 46.56497 | 6.56369 | 17339 ft | 393 kts | 88° |
| 2026-02-20 22:40 | 46.56364 | 6.60295 | 17325 ft | 392 kts | 87° |
| 2026-02-20 22:40 | 46.56292 | 6.64241 | 17331 ft | 391 kts | 85° |
| 2026-02-20 22:41 | 46.56282 | 6.68158 | 17318 ft | 390 kts | 85° |
| 2026-02-20 22:41 | 46.56303 | 6.72088 | 17320 ft | 389 kts | 85° |
| 2026-02-20 22:41 | 46.56334 | 6.76020 | 17361 ft | 389 kts | 85° |
| 2026-02-20 22:42 | 46.56364 | 6.83855 | 17354 ft | 389 kts | 85° |
| 2026-02-20 22:42 | 46.56561 | 6.87756 | 17329 ft | 384 kts | 75° |
| 2026-02-20 22:42 | 46.57347 | 6.91386 | 17315 ft | 373 kts | 57° |
| 2026-02-20 22:42 | 46.58747 | 6.94489 | 17363 ft | 364 kts | 45° |
| 2026-02-20 22:43 | 46.60377 | 6.97238 | 17330 ft | 363 kts | 42° |
| 2026-02-20 22:43 | 46.62076 | 6.99983 | 17336 ft | 364 kts | 43° |
| 2026-02-20 22:43 | 46.63733 | 7.02752 | 17326 ft | 365 kts | 44° |
| 2026-02-20 22:43 | 46.65357 | 7.05609 | 17330 ft | 366 kts | 45° |
| 2026-02-20 22:44 | 46.66955 | 7.08495 | 17301 ft | 366 kts | 46° |
| 2026-02-20 22:44 | 46.68534 | 7.11372 | 17298 ft | 366 kts | 45° |
| 2026-02-20 22:44 | 46.70121 | 7.14271 | 17344 ft | 366 kts | 46° |
| 2026-02-20 22:44 | 46.71704 | 7.17154 | 17330 ft | 366 kts | 46° |
| 2026-02-20 22:45 | 46.73293 | 7.20040 | 17317 ft | 366 kts | 45° |
| 2026-02-20 22:45 | 46.74889 | 7.22920 | 17321 ft | 366 kts | 45° |
| 2026-02-20 22:45 | 46.76485 | 7.25785 | 17309 ft | 366 kts | 45° |
| 2026-02-20 22:45 | 46.78085 | 7.28668 | 17312 ft | 366 kts | 45° |
| 2026-02-20 22:46 | 46.79695 | 7.31569 | 17316 ft | 367 kts | 46° |
| 2026-02-20 22:46 | 46.81291 | 7.34490 | 17325 ft | 367 kts | 46° |
| 2026-02-20 22:46 | 46.82853 | 7.37371 | 17329 ft | 367 kts | 46° |
| 2026-02-20 22:46 | 46.84445 | 7.40307 | 17330 ft | 367 kts | 46° |
| 2026-02-20 22:47 | 46.86044 | 7.43229 | 17333 ft | 367 kts | 46° |
| 2026-02-20 22:47 | 46.87638 | 7.46123 | 17333 ft | 367 kts | 46° |
| 2026-02-20 22:47 | 46.89225 | 7.49045 | 17338 ft | 368 kts | 46° |
| 2026-02-20 22:47 | 46.90814 | 7.51993 | 17335 ft | 368 kts | 46° |
| 2026-02-20 22:48 | 46.92401 | 7.54938 | 17336 ft | 368 kts | 46° |
| 2026-02-20 22:48 | 46.93980 | 7.57861 | 17327 ft | 367 kts | 46° |
| 2026-02-20 22:48 | 46.95565 | 7.60779 | 17334 ft | 366 kts | 46° |
| 2026-02-20 22:48 | 46.97134 | 7.63664 | 17333 ft | 366 kts | 46° |
| 2026-02-20 22:49 | 46.98729 | 7.66602 | 17335 ft | 367 kts | 46° |
| 2026-02-20 22:49 | 47.00303 | 7.69504 | 17328 ft | 367 kts | 46° |
| 2026-02-20 22:49 | 47.01903 | 7.72436 | 17360 ft | 367 kts | 46° |
| 2026-02-20 22:49 | 47.03484 | 7.75360 | 17352 ft | 367 kts | 47° |
| 2026-02-20 22:50 | 47.05054 | 7.78297 | 17323 ft | 367 kts | 47° |
| 2026-02-20 22:50 | 47.06631 | 7.81253 | 17335 ft | 368 kts | 47° |
| 2026-02-20 22:50 | 47.08263 | 7.84140 | 17280 ft | 363 kts | 39° |
| 2026-02-20 22:50 | 47.10265 | 7.86172 | 17217 ft | 344 kts | 19° |
| 2026-02-20 22:51 | 47.12478 | 7.87196 | 17092 ft | 326 kts | 8° |
| 2026-02-20 22:51 | 47.14676 | 7.87859 | 16925 ft | 315 kts | 7° |
| 2026-02-20 22:51 | 47.16818 | 7.88551 | 16619 ft | 312 kts | 9° |
| 2026-02-20 22:51 | 47.18910 | 7.89351 | 16321 ft | 311 kts | 11° |
| 2026-02-20 22:52 | 47.20955 | 7.90257 | 16036 ft | 308 kts | 13° |
| 2026-02-20 22:52 | 47.22987 | 7.91211 | 15757 ft | 305 kts | 13° |
| 2026-02-20 22:52 | 47.25005 | 7.92169 | 15469 ft | 302 kts | 13° |
| 2026-02-20 22:52 | 47.27005 | 7.93118 | 15211 ft | 298 kts | 13° |
| 2026-02-20 22:53 | 47.28962 | 7.94032 | 15150 ft | 290 kts | 12° |
| 2026-02-20 22:53 | 47.30868 | 7.94914 | 15050 ft | 283 kts | 12° |
| 2026-02-20 22:53 | 47.32728 | 7.95774 | 14972 ft | 278 kts | 12° |
| 2026-02-20 22:53 | 47.34547 | 7.96622 | 14886 ft | 277 kts | 12° |
| 2026-02-20 22:54 | 47.36390 | 7.97488 | 14809 ft | 277 kts | 12° |
| 2026-02-20 22:54 | 47.38228 | 7.98353 | 14722 ft | 278 kts | 13° |
| 2026-02-20 22:54 | 47.40083 | 7.99220 | 14633 ft | 279 kts | 13° |
| 2026-02-20 22:54 | 47.41938 | 8.00082 | 14537 ft | 279 kts | 12° |
| 2026-02-20 22:55 | 47.43795 | 8.00948 | 14396 ft | 278 kts | 12° |
| 2026-02-20 22:55 | 47.45634 | 8.01807 | 14246 ft | 277 kts | 12° |
| 2026-02-20 22:55 | 47.47353 | 8.02691 | 14048 ft | 278 kts | 21° |
| 2026-02-20 22:55 | 47.48931 | 8.04248 | 13883 ft | 287 kts | 40° |
| 2026-02-20 22:56 | 47.50066 | 8.06722 | 13631 ft | 297 kts | 66° |
| 2026-02-20 22:56 | 47.50403 | 8.09730 | 13363 ft | 303 kts | 90° |
| 2026-02-20 22:56 | 47.50144 | 8.12808 | 13055 ft | 306 kts | 99° |
| 2026-02-20 22:56 | 47.49692 | 8.15863 | 12757 ft | 305 kts | 101° |
| 2026-02-20 22:57 | 47.49232 | 8.18919 | 12473 ft | 304 kts | 99° |
| 2026-02-20 22:57 | 47.48829 | 8.21975 | 12185 ft | 303 kts | 98° |
| 2026-02-20 22:57 | 47.48495 | 8.25033 | 11935 ft | 301 kts | 96° |
| 2026-02-20 22:57 | 47.48203 | 8.28098 | 11686 ft | 300 kts | 95° |
| 2026-02-20 22:58 | 47.47928 | 8.31149 | 11430 ft | 298 kts | 95° |
| 2026-02-20 22:58 | 47.47654 | 8.34168 | 11187 ft | 296 kts | 96° |
| 2026-02-20 22:58 | 47.47371 | 8.37144 | 10937 ft | 295 kts | 96° |
| 2026-02-20 22:58 | 47.47082 | 8.40130 | 10699 ft | 293 kts | 96° |
| 2026-02-20 22:59 | 47.46792 | 8.43113 | 10453 ft | 292 kts | 96° |
| 2026-02-20 22:59 | 47.46509 | 8.46058 | 10206 ft | 290 kts | 96° |
| 2026-02-20 22:59 | 47.46232 | 8.48981 | 9965 ft | 289 kts | 96° |
| 2026-02-20 22:59 | 47.45961 | 8.51900 | 9727 ft | 287 kts | 95° |
| 2026-02-20 23:00 | 47.45793 | 8.54842 | 9492 ft | 285 kts | 89° |
| 2026-02-20 23:00 | 47.45857 | 8.57756 | 9240 ft | 283 kts | 83° |
| 2026-02-20 23:00 | 47.46076 | 8.60647 | 8988 ft | 282 kts | 80° |
| 2026-02-20 23:00 | 47.46335 | 8.63505 | 8739 ft | 281 kts | 80° |
| 2026-02-20 23:01 | 47.46582 | 8.66354 | 8517 ft | 280 kts | 82° |
| 2026-02-20 23:01 | 47.46794 | 8.69105 | 8280 ft | 279 kts | 83° |
| 2026-02-20 23:01 | 47.46989 | 8.71880 | 8048 ft | 279 kts | 83° |
| 2026-02-20 23:01 | 47.47182 | 8.74731 | 7793 ft | 278 kts | 83° |
| 2026-02-20 23:02 | 47.47374 | 8.77594 | 7560 ft | 278 kts | 83° |
| 2026-02-20 23:02 | 47.47567 | 8.80426 | 7339 ft | 276 kts | 83° |
| 2026-02-20 23:02 | 47.47761 | 8.83239 | 7110 ft | 275 kts | 83° |
| 2026-02-20 23:02 | 47.47960 | 8.86067 | 6848 ft | 276 kts | 83° |
| 2026-02-20 23:03 | 47.48163 | 8.88852 | 6613 ft | 272 kts | 83° |
| 2026-02-20 23:03 | 47.48359 | 8.91573 | 6613 ft | 253 kts | 83° |
| 2026-02-20 23:03 | 47.48505 | 8.94022 | 6454 ft | 228 kts | 89° |
| 2026-02-20 23:03 | 47.48054 | 8.96124 | 6216 ft | 208 kts | 127° |
| 2026-02-20 23:04 | 47.46967 | 8.97313 | 6143 ft | 193 kts | 166° |
| 2026-02-20 23:04 | 47.45642 | 8.97293 | 6097 ft | 189 kts | 199° |
| 2026-02-20 23:04 | 47.44453 | 8.96509 | 5957 ft | 186 kts | 217° |
| 2026-02-20 23:04 | 47.43583 | 8.95157 | 5853 ft | 180 kts | 246° |
| 2026-02-20 23:05 | 47.43238 | 8.93380 | 5755 ft | 180 kts | 265° |
| 2026-02-20 23:05 | 47.43212 | 8.91535 | 5636 ft | 179 kts | 274° |
| 2026-02-20 23:05 | 47.43332 | 8.89720 | 5465 ft | 177 kts | 278° |
| 2026-02-20 23:05 | 47.43503 | 8.87901 | 5353 ft | 179 kts | 278° |
| 2026-02-20 23:06 | 47.43669 | 8.86083 | 5178 ft | 178 kts | 277° |
| 2026-02-20 23:06 | 47.43810 | 8.84273 | 5019 ft | 177 kts | 276° |
| 2026-02-20 23:06 | 47.43933 | 8.82486 | 5033 ft | 176 kts | 276° |
| 2026-02-20 23:06 | 47.44050 | 8.80685 | 4875 ft | 175 kts | 275° |
| 2026-02-20 23:07 | 47.44162 | 8.78900 | 4627 ft | 173 kts | 275° |
| 2026-02-20 23:07 | 47.44274 | 8.77148 | 4399 ft | 175 kts | 276° |
| 2026-02-20 23:07 | 47.44392 | 8.75350 | 4134 ft | 176 kts | 276° |
| 2026-02-20 23:07 | 47.44516 | 8.73543 | 3877 ft | 177 kts | 276° |
| 2026-02-20 23:08 | 47.44641 | 8.71739 | 3614 ft | 176 kts | 276° |
| 2026-02-20 23:08 | 47.44764 | 8.69996 | 3350 ft | 166 kts | 276° |
| 2026-02-20 23:08 | 47.44879 | 8.68354 | 3115 ft | 156 kts | 275° |
| 2026-02-20 23:08 | 47.44984 | 8.66782 | 2872 ft | 150 kts | 275° |
| 2026-02-20 23:09 | 47.45078 | 8.65272 | 2715 ft | 146 kts | 275° |
| 2026-02-20 23:09 | 47.45168 | 8.63816 | 2462 ft | 144 kts | 276° |
| 2026-02-20 23:09 | 47.45276 | 8.62310 | 2275 ft | 149 kts | 277° |
| 2026-02-20 23:09 | 47.45394 | 8.60768 | 2030 ft | 148 kts | 276° |
| 2026-02-20 23:10 | 47.45509 | 8.59244 | 1787 ft | 149 kts | 276° |
| 2026-02-20 23:10 | 47.45610 | 8.57730 | 1589 ft | 149 kts | 276° |
| 2026-02-20 23:10 | 47.45721 | 8.56211 | 1419 ft | 146 kts | 276° |
| 2026-02-20 23:10 | 47.45811 | 8.54993 | 1397 ft | 75 kts | 274° |
| 2026-02-20 23:11 | 47.45823 | 8.54616 | 1394 ft | 26 kts | 265° |
| 2026-02-20 23:11 | 47.45766 | 8.54304 | 1394 ft | 32 kts | 241° |
| 2026-02-20 23:11 | 47.45630 | 8.54255 | 1394 ft | 16 kts | 142° |
| 2026-02-20 23:11 | 47.45581 | 8.54427 | 1394 ft | 21 kts | 107° |
| 2026-02-20 23:12 | 47.45531 | 8.54658 | 1396 ft | 25 kts | 109° |
| 2026-02-20 23:12 | 47.45471 | 8.54917 | 1398 ft | 27 kts | 109° |
| 2026-02-20 23:12 | 47.45404 | 8.55197 | 1400 ft | 30 kts | 109° |
| 2026-02-20 23:12 | 47.45392 | 8.55246 | 1400 ft | 0 kts | 114° |
| 2026-02-20 23:13 | 47.45389 | 8.55256 | 1401 ft | 0 kts | 114° |
| 2026-02-20 23:13 | 47.45388 | 8.55256 | 1401 ft | 0 kts | 114° |
| 2026-02-20 23:14 | 47.45370 | 8.55311 | 1401 ft | 12 kts | 117° |
| 2026-02-20 23:14 | 47.45304 | 8.55431 | 1402 ft | 18 kts | 149° |
| 2026-02-20 23:14 | 47.45166 | 8.55529 | 1403 ft | 24 kts | 155° |
| 2026-02-20 23:14 | 47.45002 | 8.55645 | 1403 ft | 23 kts | 147° |
| 2026-02-20 23:15 | 47.44955 | 8.55817 | 1404 ft | 4 kts | 59° |
| 2026-02-20 23:15 | 47.44996 | 8.55845 | 1405 ft | 11 kts | 12° |